Data for 09/07/2005

Time Sea-Level Adjusted Pressure Absolute Pressure Temperature Relative Humidity Dew Point   
(mb) (inHg) (mb) (inHg) (C) (F) (%) (C) (F)
00:05 1022 30.18 851 25.13 16.9 62.5 35 1.5 34.7
00:10 1022 30.18 851 25.13 16.9 62.4 35 1.5 34.8
00:15 1022 30.18 851 25.13 17 62.6 35 1.5 34.7
00:20 1022 30.18 851 25.13 17 62.7 35 1.6 34.9
00:25 1022 30.18 851 25.13 16.9 62.5 35 1.6 35
00:30 1022 30.18 851 25.13 16.8 62.3 35 1.6 34.9
00:35 1022 30.18 851 25.13 16.7 62.1 36 1.9 35.3
00:40 1022 30.18 852 25.16 16.6 61.9 37 1.9 35.4
00:45 1022 30.18 852 25.16 16.5 61.6 37 2 35.6
00:50 1022 30.18 851 25.13 16.4 61.5 37 2 35.5
00:55 1022 30.18 851 25.13 16.3 61.3 38 2 35.6
01:00 1022 30.18 851 25.13 16.2 61.1 38 1.9 35.3
01:05 1022 30.18 851 25.13 16.2 61.2 38 1.9 35.4
01:10 1022 30.18 851 25.13 16.3 61.3 37 1.8 35.3
01:15 1022 30.18 851 25.13 16.3 61.4 37 1.8 35.3
01:20 1022 30.18 851 25.13 16.4 61.6 37 1.8 35.3
01:25 1022 30.18 851 25.13 16.4 61.4 38 2 35.5
01:30 1022 30.18 851 25.13 16.2 61.1 38 1.9 35.3
01:35 1022 30.18 851 25.13 16.2 61.1 37 1.7 35
01:40 1022 30.18 851 25.13 16.2 61.2 38 1.9 35.5
01:45 1022 30.18 851 25.13 16.2 61.2 37 1.7 35.1
01:50 1022 30.18 851 25.13 16.3 61.3 37 1.7 35.1
01:55 1022 30.18 851 25.13 16.2 61.2 37 1.7 35
02:00 1022 30.18 851 25.13 16.2 61.1 37 1.7 35
02:05 1022 30.18 851 25.13 16.2 61.1 37 1.5 34.6
02:10 1022 30.18 851 25.13 16.2 61.2 37 1.5 34.8
02:15 1022 30.18 851 25.13 16.1 61 37 1.4 34.5
02:20 1022 30.18 851 25.13 16.1 60.9 37 1.4 34.5
02:25 1022 30.18 852 25.16 16 60.8 37 1.4 34.6
02:30 1022 30.18 852 25.16 16 60.8 36 1.1 34
02:35 1022 30.18 852 25.16 16 60.8 36 1.2 34.2
02:40 1022 30.18 852 25.16 15.9 60.6 37 1.3 34.4
02:45 1022 30.18 852 25.16 15.7 60.2 37 1.2 34.2
02:50 1022 30.18 852 25.16 15.7 60.2 37 1.2 34.2
02:55 1022 30.18 852 25.16 15.4 59.8 38 1.2 34.1
03:00 1022 30.18 852 25.16 15.4 59.7 38 1.2 34.1
03:05 1022 30.18 851 25.13 15.3 59.6 38 1.3 34.3
03:10 1022 30.18 852 25.16 15.1 59.2 39 1.2 34.2
03:15 1022 30.18 852 25.16 15 59 39 1.2 34.2
03:20 1022 30.18 851 25.13 14.9 58.9 39 1.2 34.2
03:25 1022 30.18 852 25.16 14.8 58.6 40 1.3 34.4
03:30 1022 30.18 852 25.16 14.4 58 42 1.7 35
03:35 1022 30.18 852 25.16 13.8 56.8 45 2 35.6
03:40 1022 30.18 852 25.16 13.4 56.2 45 1.8 35.2
03:45 1022 30.18 852 25.16 13.3 56 46 1.9 35.3
03:50 1022 30.18 852 25.16 13.3 55.9 45 1.8 35.2
03:55 1022 30.18 852 25.16 13.2 55.8 45 1.7 35
04:00 1022 30.18 852 25.16 13.2 55.8 45 1.6 35
04:05 1022 30.18 852 25.16 13.2 55.7 45 1.6 34.8
04:10 1022 30.18 852 25.16 13.2 55.7 44 1.4 34.4
04:15 1023 30.21 852 25.16 13.1 55.6 44 1.4 34.5
04:20 1023 30.21 852 25.16 13.1 55.5 45 1.6 34.8
04:25 1023 30.21 852 25.16 12.7 54.9 47 1.7 35.1
04:30 1023 30.21 852 25.16 12.6 54.7 48 2 35.6
04:35 1023 30.21 852 25.16 12.1 53.8 50 2.2 35.9
04:40 1023 30.21 852 25.16 12 53.6 52 2.5 36.4
04:45 1023 30.21 852 25.16 11.8 53.2 52 2.2 36
04:50 1023 30.21 852 25.16 11.9 53.3 60 4.3 39.8
04:55 1023 30.21 852 25.16 11.9 53.3 51 2.1 35.8
05:00 1023 30.21 852 25.16 11.9 53.4 53 2.8 37
05:05 1023 30.21 852 25.16 11.7 53.1 53 2.4 36.3
05:10 1023 30.21 852 25.16 10.9 51.6 54 2 35.5
05:15 1023 30.21 852 25.16 10.7 51.3 55 2.2 35.9
05:20 1023 30.21 852 25.16 10.4 50.8 54 1.6 34.9
05:25 1023 30.21 852 25.16 10.5 50.8 59 2.8 37
05:30 1023 30.21 852 25.16 10.8 51.4 52 1.3 34.3
05:35 1023 30.21 852 25.16 11.5 52.7 53 2.4 36.3
05:40 1023 30.21 852 25.16 11.7 53.1 50 1.7 35.1
05:45 1023 30.21 852 25.16 11.5 52.7 52 1.9 35.5
05:50 1023 30.21 852 25.16 10.9 51.6 54 2 35.5
05:55 1023 30.21 852 25.16 10.4 50.8 56 2.1 35.7
06:00 1023 30.21 852 25.16 10.1 50.3 56 1.9 35.4
06:05 1023 30.21 852 25.16 10.2 50.4 56 1.9 35.4
06:10 1023 30.21 852 25.16 10.1 50.1 57 2.1 35.8
06:15 1023 30.21 852 25.16 9.8 49.6 58 2 35.7
06:20 1023 30.21 852 25.16 9.5 49.1 60 2.2 36
06:25 1023 30.21 852 25.16 9 48.2 62 2.1 35.8
06:30 1023 30.21 852 25.16 8.8 47.8 63 2.1 35.7
06:35 1023 30.21 852 25.16 8.8 47.8 61 1.6 34.9
06:40 1023 30.21 852 25.16 9.5 49 58 1.7 35.1
06:45 1023 30.21 852 25.16 9.7 49.5 58 1.8 35.2
06:50 1023 30.21 852 25.16 9.8 49.6 58 1.8 35.3
06:55 1023 30.21 852 25.16 9.6 49.2 59 1.9 35.5
07:00 1023 30.21 852 25.16 9.3 48.8 59 1.8 35.3
07:05 1023 30.21 853 25.19 9.4 48.9 59 1.8 35.3
07:10 1023 30.21 853 25.19 9.5 49 59 1.9 35.4
07:15 1023 30.21 853 25.19 9.6 49.2 58 1.8 35.3
07:20 1023 30.21 853 25.19 9.7 49.5 58 2 35.6
07:25 1023 30.21 853 25.19 9.9 49.7 57 1.9 35.4
07:30 1024 30.24 853 25.19 10.3 50.5 55 1.7 35.1
07:35 1024 30.24 853 25.19 10.8 51.4 54 1.9 35.4
07:40 1024 30.24 853 25.19 10.8 51.4 54 1.8 35.3
07:45 1024 30.24 853 25.19 11.1 51.9 53 1.9 35.3
07:50 1024 30.24 853 25.19 11.3 52.4 52 1.9 35.4
07:55 1024 30.24 853 25.19 11.3 52.4 54 2.3 36.2
08:00 1024 30.24 853 25.19 11.3 52.3 54 2.3 36.1
08:05 1024 30.24 853 25.19 11.1 51.9 54 2.2 36
08:10 1024 30.24 853 25.19 11.1 52 54 2.3 36.1
08:15 1024 30.24 853 25.19 11.3 52.3 54 2.3 36.2
08:20 1024 30.24 853 25.19 11.6 52.9 52 2.1 35.8
08:25 1024 30.24 853 25.19 11.9 53.4 51 2.1 35.8
08:30 1024 30.24 853 25.19 12.3 54.2 49 2 35.5
08:35 1024 30.24 853 25.19 13 55.4 49 2.6 36.7
08:40 1024 30.24 853 25.19 13.7 56.7 47 2.8 37
08:45 1024 30.24 853 25.19 14.3 57.7 47 3.2 37.8
08:50 1024 30.24 853 25.19 14.1 57.5 48 3.4 38.1
08:55 1024 30.24 853 25.19 14.3 57.7 48 3.5 38.3
09:00 1024 30.24 853 25.19 14.5 58.1 52 4.9 40.9
09:05 1024 30.24 853 25.19 14.6 58.3 46 3.2 37.7
09:10 1024 30.24 853 25.19 14.7 58.5 45 3 37.4
09:15 1024 30.24 853 25.19 14.6 58.2 51 4.5 40.1
09:20 1024 30.24 853 25.19 15 59 46 3.6 38.5
09:25 1024 30.24 853 25.19 15.7 60.2 44 3.6 38.5
09:30 1024 30.24 853 25.19 16.5 61.7 42 3.5 38.4
09:35 1024 30.24 853 25.19 17.2 63 39 3.3 38
09:40 1024 30.24 853 25.19 17.3 63.2 38 3.1 37.6
09:45 1024 30.24 853 25.19 17.7 63.8 35 2.3 36.1
09:50 1024 30.24 853 25.19 18.4 65.1 36 3.1 37.5
09:55 1024 30.24 853 25.19 19.2 66.6 31 2 35.6
10:00 1024 30.24 853 25.19 19.5 67 31 2.1 35.7
10:05 1024 30.24 853 25.19 19.5 67.1 30 1.8 35.3
10:10 1024 30.24 853 25.19 20 68 30 2 35.7
10:15 1024 30.24 853 25.19 19.6 67.3 32 2.8 37.1
10:20 1024 30.24 853 25.19 19 66.1 33 2.4 36.4
10:25 1024 30.24 853 25.19 19.8 67.6 31 2.6 36.6
10:30 1024 30.24 853 25.19 20.5 68.9 31 2.9 37.2
10:35 1024 30.24 853 25.19 21.2 70.2 29 2.9 37.2
10:40 1024 30.24 853 25.19 21 69.8 30 3.1 37.6
10:45 1024 30.24 853 25.19 21 69.8 29 2.6 36.8
10:50 1024 30.24 853 25.19 21.4 70.6 30 3.3 38
10:55 1024 30.24 853 25.19 21.1 70 30 3 37.3
11:00 1024 30.24 853 25.19 21.2 70.2 30 3 37.4
11:05 1024 30.24 853 25.19 21.5 70.7 29 2.7 36.9
11:10 1024 30.24 853 25.19 21.1 70.1 29 2.8 37.1
11:15 1024 30.24 853 25.19 21 69.9 30 3.1 37.5
11:20 1024 30.24 853 25.19 21.6 70.8 29 3.1 37.6
11:25 1024 30.24 853 25.19 22.1 71.7 29 3.4 38.1
11:30 1024 30.24 853 25.19 22.3 72.1 29 3.5 38.3
11:35 1023 30.21 853 25.19 22.9 73.2 27 3.2 37.7
11:40 1023 30.21 853 25.19 22.5 72.4 29 3.9 39.1
11:45 1023 30.21 853 25.19 21.6 70.9 29 3 37.4
11:50 1023 30.21 853 25.19 21.8 71.3 30 3.5 38.3
11:55 1023 30.21 853 25.19 22.1 71.7 28 2.8 37.1
12:00 1023 30.21 852 25.16 22.7 72.8 28 3.4 38.1
12:05 1023 30.21 852 25.16 23.3 73.9 27 3.2 37.8
12:10 1023 30.21 852 25.16 23.5 74.4 27 3.5 38.3
12:15 1023 30.21 852 25.16 23.7 74.6 25 2.6 36.8
12:20 1023 30.21 852 25.16 23.9 75.1 26 3.3 37.9
12:25 1023 30.21 852 25.16 24.1 75.4 25 3.2 37.8
12:30 1023 30.21 852 25.16 24.2 75.5 25 3 37.4
12:35 1023 30.21 852 25.16 23.4 74.1 27 3.4 38
12:40 1023 30.21 852 25.16 23.8 74.8 25 2.8 37.1
12:45 1023 30.21 852 25.16 24.1 75.4 24 2.6 36.7
12:50 1023 30.21 852 25.16 24.5 76.2 24 3 37.4
12:55 1023 30.21 852 25.16 24.6 76.3 24 2.8 37
13:00 1023 30.21 852 25.16 24.6 76.2 24 2.7 36.8
13:05 1023 30.21 852 25.16 24.6 76.2 25 3.3 37.9
13:10 1023 30.21 852 25.16 24.4 75.8 24 3 37.4
13:15 1023 30.21 852 25.16 24.7 76.4 24 3 37.4
13:20 1023 30.21 852 25.16 25.3 77.6 22 2.2 36
13:25 1023 30.21 852 25.16 25.5 77.9 23 2.9 37.2
13:30 1023 30.21 852 25.16 25.6 78 22 2.6 36.6
13:35 1022 30.18 852 25.16 24.7 76.5 23 2.2 36
13:40 1022 30.18 852 25.16 25.2 77.4 23 2.6 36.7
13:45 1022 30.18 852 25.16 25.6 78 22 2.5 36.5
13:50 1022 30.18 851 25.13 25.6 78.1 22 2.6 36.7
13:55 1022 30.18 851 25.13 26.1 78.9 20 2 35.5
14:00 1022 30.18 851 25.13 26.7 80 20 2.4 36.2
14:05 1022 30.18 851 25.13 26.6 79.9 20 2.4 36.3
14:10 1022 30.18 851 25.13 26.5 79.6 19 1.6 34.9
14:15 1022 30.18 851 25.13 25.3 77.6 22 2.1 35.8
14:20 1022 30.18 851 25.13 25.8 78.5 21 2 35.7
14:25 1022 30.18 851 25.13 25.9 78.7 21 2.2 35.9
14:30 1022 30.18 851 25.13 26.1 79 21 2.4 36.3
14:35 1022 30.18 851 25.13 26.7 80 20 1.9 35.4
14:40 1022 30.18 851 25.13 26.5 79.6 20 1.7 35.1
14:45 1021 30.15 851 25.13 26 78.7 20 1.4 34.5
14:50 1021 30.15 851 25.13 25.8 78.4 20 1.4 34.5
14:55 1021 30.15 851 25.13 26.1 79 20 1.8 35.2
15:00 1021 30.15 850 25.1 26.2 79.1 20 1.5 34.7
15:05 1021 30.15 850 25.1 26 78.8 18 0.3 32.6
15:10 1021 30.15 850 25.1 25.9 78.6 20 1.4 34.6
15:15 1021 30.15 850 25.1 26 78.7 20 1.3 34.3
15:20 1021 30.15 850 25.1 26.1 78.9 20 1.4 34.5
15:25 1021 30.15 850 25.1 26.7 80 19 1.6 34.9
15:30 1021 30.15 850 25.1 26.5 79.7 18 0.4 32.7
15:35 1021 30.15 850 25.1 26.4 79.5 20 1.8 35.3
15:40 1021 30.15 850 25.1 26.3 79.3 19 0.9 33.7
15:45 1021 30.15 850 25.1 26.5 79.7 19 1.2 34.1
15:50 1021 30.15 850 25.1 26.5 79.6 18 0.7 33.3
15:55 1021 30.15 850 25.1 26.3 79.4 20 1.8 35.2
16:00 1021 30.15 850 25.1 26.5 79.7 18 0.9 33.6
16:05 1021 30.15 850 25.1 26.5 79.6 18 0.7 33.3
16:10 1021 30.15 850 25.1 26.8 80.2 18 0.9 33.7
16:15 1020 30.12 850 25.1 27.3 81.1 17 0.7 33.2
16:20 1020 30.12 850 25.1 27.3 81.1 18 0.9 33.6
16:25 1020 30.12 850 25.1 27.7 81.9 16 -0.3 31.4
16:30 1020 30.12 850 25.1 27.7 81.9 15 -0.5 31
16:35 1020 30.12 850 25.1 27.5 81.4 16 -0.2 31.6
16:40 1020 30.12 850 25.1 27.5 81.5 15 -1.4 29.5
16:45 1020 30.12 849 25.07 27.3 81.1 14 -1.8 28.8
16:50 1020 30.12 849 25.07 27 80.6 15 -1.7 28.9
16:55 1020 30.12 849 25.07 27.2 80.9 14 -2 28.5
17:00 1020 30.12 849 25.07 27.1 80.8 14 -2 28.4
17:05 1020 30.12 849 25.07 27.2 80.9 15 -1.3 29.6
17:10 1020 30.12 849 25.07 27.1 80.7 15 -1.9 28.5
17:15 1020 30.12 849 25.07 27 80.5 15 -1.7 28.9
17:20 1020 30.12 849 25.07 27.2 80.9 14 -2 28.5
17:25 1020 30.12 849 25.07 26.8 80.3 15 -1.9 28.7
17:30 1020 30.12 849 25.07 26.9 80.5 15 -1.6 29.1
17:35 1020 30.12 849 25.07 27 80.6 15 -1.7 28.9
17:40 1020 30.12 849 25.07 26.9 80.4 15 -1.5 29.3
17:45 1020 30.12 849 25.07 27.2 81 15 -1.4 29.5
17:50 1020 30.12 849 25.07 27.2 81 15 -0.9 30.3
17:55 1020 30.12 849 25.07 27.2 81 15 -1.5 29.3
18:00 1020 30.12 849 25.07 27.2 80.9 16 -0.9 30.3
18:05 1020 30.12 849 25.07 27.2 81 16 -0.9 30.4
18:10 1020 30.12 849 25.07 27.1 80.8 16 -1 30.2
18:15 1020 30.12 849 25.07 27 80.6 17 0.1 32.2
18:20 1020 30.12 849 25.07 26.6 80 16 -0.8 30.5
18:25 1020 30.12 849 25.07 26.3 79.3 19 0.8 33.4
18:30 1020 30.12 849 25.07 26.2 79.2 18 0.5 32.9
18:35 1020 30.12 849 25.07 26.1 78.9 19 0.7 33.3
18:40 1020 30.12 849 25.07 25.9 78.5 18 -0 32
18:45 1020 30.12 849 25.07 25.9 78.5 19 0.5 32.9
18:50 1020 30.12 849 25.07 25.7 78.3 20 1.1 34
18:55 1020 30.12 849 25.07 25.7 78.3 20 1.2 34.1
19:00 1020 30.12 849 25.07 25.6 78.1 19 0.6 33
19:05 1020 30.12 849 25.07 25.6 78 20 1.1 34
19:10 1020 30.12 849 25.07 25.2 77.3 22 2.2 36
19:15 1020 30.12 849 25.07 24.5 76.2 23 2.3 36.1
19:20 1020 30.12 849 25.07 24.1 75.5 23 2 35.6
19:25 1020 30.12 849 25.07 23.8 74.9 24 2.3 36.2
19:30 1020 30.12 849 25.07 23.6 74.4 24 2 35.6
19:35 1020 30.12 849 25.07 23.3 74 23 1.4 34.5
19:40 1020 30.12 849 25.07 22.9 73.2 32 5.5 41.9
19:45 1020 30.12 849 25.07 22 71.6 33 5 41
19:50 1020 30.12 849 25.07 21.6 70.9 31 3.8 38.8
19:55 1020 30.12 849 25.07 21.1 70 31 3.5 38.3
20:00 1020 30.12 849 25.07 20.8 69.4 30 2.7 36.8
20:05 1020 30.12 849 25.07 20.4 68.7 34 4.4 39.9
20:10 1020 30.12 849 25.07 20 68.1 31 2.7 36.9
20:15 1020 30.12 849 25.07 19.7 67.5 32 2.8 37
20:20 1020 30.12 849 25.07 19.5 67.1 35 4 39.2
20:25 1020 30.12 849 25.07 19.4 66.9 33 2.7 36.9
20:30 1020 30.12 849 25.07 19 66.2 33 2.4 36.3
20:35 1020 30.12 849 25.07 19.1 66.4 32 2.2 36
20:40 1020 30.12 849 25.07 18.4 65.2 35 2.7 36.9
20:45 1020 30.12 849 25.07 17.9 64.2 34 2 35.7
20:50 1020 30.12 849 25.07 18.3 65 30 0.6 33
20:55 1020 30.12 849 25.07 18.9 66 30 1 33.7
21:00 1020 30.12 849 25.07 18.5 65.3 30 0.7 33.2
21:05 1020 30.12 849 25.07 18.3 64.9 30 0.6 33
21:10 1020 30.12 849 25.07 18.6 65.4 29 0.5 33
21:15 1020 30.12 849 25.07 18.6 65.4 30 0.6 33.1
21:20 1020 30.12 849 25.07 18.4 65.1 32 1.8 35.2
21:25 1020 30.12 849 25.07 18.3 64.9 30 0.5 33
21:30 1020 30.12 849 25.07 18.1 64.6 30 0.5 32.8
21:35 1020 30.12 849 25.07 17.9 64.3 33 1.5 34.7
21:40 1020 30.12 850 25.1 17.7 63.9 31 0.4 32.7
21:45 1020 30.12 850 25.1 17.8 64 30 0.3 32.6
21:50 1020 30.12 850 25.1 17.9 64.2 30 0.3 32.6
21:55 1020 30.12 850 25.1 17.7 63.8 30 0.2 32.4
22:00 1020 30.12 850 25.1 17.7 63.8 32 0.9 33.6
22:05 1021 30.15 850 25.1 17.8 64.1 29 -0.2 31.6
22:10 1021 30.15 850 25.1 18 64.4 29 -0.1 31.9
22:15 1021 30.15 850 25.1 17.8 64.1 31 0.5 32.9
22:20 1021 30.15 850 25.1 17.8 64.1 29 -0.5 31.1
22:25 1021 30.15 850 25.1 18 64.4 31 0.7 33.3
22:30 1021 30.15 850 25.1 17.8 64.1 30 0 32.1
22:35 1021 30.15 850 25.1 17.9 64.1 30 0.4 32.7
22:40 1021 30.15 850 25.1 17.7 63.9 32 0.8 33.4
22:45 1021 30.15 850 25.1 17.5 63.4 33 1.2 34.2
22:50 1021 30.15 850 25.1 16.6 61.8 35 1.2 34.2
22:55 1021 30.15 850 25.1 16.1 61 43 3.6 38.4
23:00 1021 30.15 850 25.1 16 60.8 38 1.8 35.2
23:05 1021 30.15 850 25.1 16 60.8 37 1.4 34.5
23:10 1021 30.15 850 25.1 15.8 60.5 40 2.3 36.2
23:15 1021 30.15 850 25.1 15.8 60.5 36 1 33.7
23:20 1021 30.15 850 25.1 15.7 60.3 37 1 33.8
23:25 1021 30.15 850 25.1 15.8 60.4 37 1.3 34.4
23:30 1021 30.15 850 25.1 15.7 60.3 39 1.9 35.5
23:35 1021 30.15 850 25.1 15.5 59.9 38 1.2 34.2
23:40 1021 30.15 850 25.1 15.2 59.4 41 2.2 36
23:45 1021 30.15 850 25.1 15.1 59.2 39 1.3 34.3
23:50 1021 30.15 850 25.1 14.9 58.8 39 1.1 33.9
23:55 1021 30.15 850 25.1 14.8 58.7 43 2.4 36.4
24:00 1021 30.15 850 25.1 14.9 58.7 37 0.5 32.9